First American Financial (FAF) Latest Bloomsberg Price


Mffais Ranking #2429 Overall / #43 Industry
Industry: Mortgage Finance

Number of Companies: 220 (Ranking #735 Overall/#4 Industry)
Inflow: $ 117,422 (K) (Ranking #872 Overall/#7 Industry)
Outflow: $ -195,661 (K)
Mffais Flow: $ -78,239 (K) (Ranking #2429 Overall/#43 Industry)


Receive a FREE weekly executive review of stocks moving into the top 10, taking the top industy spot or moving up within their industry. Sent directly to your Inbox every Saturday. Sign up today and get last week's review immediately sent to you.

We value and respect your privacy. Please read our Terms and Conditions which states our firm commitment to your privacy. Your email address will not be shared with a third party, nor will it be sold or used for purposes other than subscription for the weekly review.

Owner CPOR Shares Action Qty Chg Invested (K) Total Current Value (K)
Redwood Investments Llc 2016-09-30 369,340 New Holding 369,340 $ 15,552 $ 15,552
First National Bank Of Omaha 2016-09-30 146,557 New Holding 146,557 $ 6,171 $ 6,171
Cornerstone Capital Management Holdings Llc 2016-09-30 388,094 Added More 143,836 $ 6,056 $ 16,342
Bowling Portfolio Management Llc 2016-09-30 141,426 New Holding 141,426 $ 5,955 $ 5,955
Qs Investors Llc 2016-09-30 113,591 Added More 110,702 $ 4,661 $ 4,783
Highbridge Capital Management Llc 2016-09-30 91,854 New Holding 91,854 $ 3,867 $ 3,867
First Quadrant L P Ca 2016-09-30 90,156 New Holding 90,156 $ 3,796 $ 3,796
New York State Common Retirement Fund 2016-09-30 477,394 Added More 88,179 $ 3,713 $ 20,103
Dupont Capital Management Corp 2016-09-30 156,159 Added More 87,358 $ 3,678 $ 6,575
Rafferty Asset Management Llc 2016-09-30 98,018 Added More 86,547 $ 3,644 $ 4,127
Cubist Systematic Strategies Llc 2016-09-30 81,000 Added More 78,037 $ 3,286 $ 3,410
Capstone Investment Advisors Llc 2016-09-30 75,398 New Holding 75,398 $ 3,175 $ 3,175
Three Corner Global Investors Lp 2016-09-30 414,900 Added More 74,600 $ 3,141 $ 17,471
Thrivent Financial For Lutherans 2016-09-30 80,200 Added More 64,490 $ 2,715 $ 3,377
Teachers Advisors Inc 2016-09-30 159,798 Added More 62,488 $ 2,631 $ 6,729
Meeder Asset Management Inc 2016-09-30 54,113 New Holding 54,113 $ 2,278 $ 2,278
Perkins Investment Management Llc 2016-09-30 721,667 Added More 53,549 $ 2,254 $ 30,389
Stevens Capital Management Lp 2016-09-30 52,350 New Holding 52,350 $ 2,204 $ 2,204
Systematic Financial Management Lp 2016-09-30 49,900 New Holding 49,900 $ 2,101 $ 2,101
Rhumbline Advisers 2016-09-30 236,447 Added More 48,697 $ 2,050 $ 9,956
Daruma Capital Management Llc 2016-09-30 47,515 New Holding 47,515 $ 2,000 $ 2,000
Cibc World Markets Inc 2016-09-30 45,770 New Holding 45,770 $ 1,927 $ 1,927
Ahl Partners Llp 2016-09-30 66,269 Added More 45,037 $ 1,896 $ 2,790
Sterling Capital Management Llc 2016-09-30 43,640 New Holding 43,640 $ 1,837 $ 1,837
Hancock Holding Co 2016-09-30 40,294 New Holding 40,294 $ 1,696 $ 1,696
State Of Tennessee Treasury Department 2016-09-30 185,800 Added More 40,000 $ 1,684 $ 7,824
Cipher Capital Lp 2016-09-30 38,383 New Holding 38,383 $ 1,616 $ 1,616
Guggenheim Capital Llc 2016-09-30 90,052 Added More 34,824 $ 1,466 $ 3,792
Gsa Capital Partners Llp 2016-09-30 33,424 New Holding 33,424 $ 1,407 $ 1,407
Quantbot Technologies Lp 2016-09-30 31,458 New Holding 31,458 $ 1,324 $ 1,324
Spark Investment Management Llc 2016-09-30 27,700 New Holding 27,700 $ 1,166 $ 1,166
American International Group Inc 2016-09-30 236,702 Added More 24,513 $ 1,032 $ 9,967
Dynamic Technology Lab Private Ltd 2016-09-30 22,211 New Holding 22,211 $ 935 $ 935
Verition Fund Management Llc 2016-09-30 19,386 New Holding 19,386 $ 816 $ 816
Zacks Investment Management 2016-09-30 19,283 New Holding 19,283 $ 812 $ 812
Quadrature Capital Ltd 2016-09-30 17,414 New Holding 17,414 $ 733 $ 733
Ellington Management Group Llc 2016-09-30 17,100 New Holding 17,100 $ 720 $ 720
Walleye Trading Llc 2016-09-30 23,747 Added More 16,966 $ 714 $ 999
Cantab Capital Partners Llp 2016-09-30 18,780 Added More 16,559 $ 697 $ 790
Bokf Na 2016-09-30 14,802 New Holding 14,802 $ 623 $ 623
Squarepoint Ops Llc 2016-09-30 14,140 New Holding 14,140 $ 595 $ 595
Princeton Alpha Management Lp 2016-09-30 30,243 Added More 13,727 $ 578 $ 1,273
Beacon Financial Group 2016-09-30 12,161 New Holding 12,161 $ 512 $ 512
Tudor Investment Corp Et Al 2016-09-30 24,897 Added More 12,097 $ 509 $ 1,048
Seven Eight Capital Llc 2016-09-30 11,600 New Holding 11,600 $ 488 $ 488
Amp Capital Investors Ltd 2016-09-30 51,640 Added More 11,500 $ 484 $ 2,174
Nisa Investment Advisors Llc 2016-09-30 39,120 Added More 11,250 $ 473 $ 1,647
Schonfeld Strategic Advisors Llc 2016-09-30 11,062 New Holding 11,062 $ 465 $ 465
Her Majesty The Queen In Right Of The Province Of Alberta As 2016-09-30 123,490 Added More 10,500 $ 442 $ 5,200
Oakbrook Investments Llc 2016-09-30 10,000 New Holding 10,000 $ 421 $ 421
First Mercantile Trust Co 2016-09-30 9,290 New Holding 9,290 $ 391 $ 391
Tributary Capital Management Llc 2016-09-30 16,000 Added More 9,000 $ 378 $ 673
Capital Fund Management S A 2016-09-30 8,800 New Holding 8,800 $ 370 $ 370
Fox Run Management L L C 2016-09-30 13,900 Added More 7,800 $ 328 $ 585
Hillsdale Investment Management Inc 2016-09-30 7,800 New Holding 7,800 $ 328 $ 328
Provise Management Group Llc 2016-09-30 7,777 New Holding 7,777 $ 327 $ 327
Bluemountain Capital Management Llc 2016-09-30 7,770 New Holding 7,770 $ 327 $ 327
Northern Trust Corp 2016-09-30 2,461,444 Added More 7,385 $ 310 $ 103,651
Peak6 Investments L P 2016-09-30 5,300 New Holding 5,300 $ 223 $ 223
Blackrock Inc 2016-09-30 89,440 Added More 4,875 $ 205 $ 3,766
Aperio Group Llc 2016-09-30 30,531 Added More 4,275 $ 180 $ 1,285
Blackrock Investment Management Llc 2016-09-30 324,811 Added More 2,716 $ 114 $ 13,677
Jacobs Levy Equity Management Inc 2016-09-30 41,530 Added More 2,380 $ 100 $ 1,748
California State Teachers Retirement System 2016-09-30 233,940 Added More 2,000 $ 84 $ 9,851
Scotia Capital Inc 2016-09-30 16,196 Added More 1,745 $ 73 $ 682
World Asset Management Inc 2016-09-30 7,747 Added More 1,729 $ 72 $ 326
Parametric Portfolio Associates Llc 2016-09-30 123,541 Added More 1,457 $ 61 $ 5,202
Stifel Financial Corp 2016-09-30 32,063 Added More 1,363 $ 57 $ 1,350
Advisor Group Inc 2016-09-30 15,190 Added More 1,344 $ 56 $ 639
Pacer Advisors Inc 2016-09-30 8,712 Added More 1,127 $ 47 $ 366
Creative Planning 2016-09-30 1,557 Added More 956 $ 40 $ 65
New York Life Trust Co 2016-09-30 2,167 Added More 939 $ 39 $ 91
Sapphire Star Partners Lp 2016-09-30 6,565 Added More 893 $ 37 $ 276
Mason Street Advisors Llc 2016-09-30 50,765 Added More 795 $ 33 $ 2,137
Navellier Associates Inc 2016-09-30 6,565 Added More 778 $ 32 $ 276
Liberty Mutual Group Asset Management Inc 2016-09-30 48,038 Added More 675 $ 28 $ 2,022
M Holdings Securities Inc 2016-09-30 10,253 Added More 626 $ 26 $ 431
Ladenburg Thalmann Financial Services Inc 2016-09-30 4,682 Added More 539 $ 22 $ 197
Ls Investment Advisors Llc 2016-09-30 7,097 Added More 497 $ 20 $ 298
Zurcher Kantonalbank Zurich Cantonalbank 2016-09-30 3,510 Added More 432 $ 18 $ 147
Smith Asset Management Group Lp 2016-09-30 420 New Holding 420 $ 17 $ 17
State Treasurer State Of Michigan 2016-09-30 44,200 Added More 200 $ 8 $ 1,861
Westpac Banking Corp 2016-09-30 16,039 Added More 194 $ 8 $ 675
Bronfman E L Rothschild L P 2016-09-30 6,424 Added More 191 $ 8 $ 270
New York State Teachers Retirement System 2016-09-30 248,223 Added More 100 $ 4 $ 10,452
Mutual Of America Capital Management Llc 2016-09-30 82,071 Added More 82 $ 3 $ 3,456
Cwm Llc 2016-09-30 80 New Holding 80 $ 3 $ 3
Farmers Merchants Investments Inc 2016-09-30 76 New Holding 76 $ 3 $ 3
Retirement Systems Of Alabama 2016-09-30 141,387 Added More 40 $ 1 $ 5,953
Pitcairn Co 2016-09-30 9,090 Added More 22 $ 0 $ 382
Washington Trust Bank 2016-09-30 21 New Holding 21 $ 0 $ 0
Northwestern Mutual Wealth Management Co 2016-09-30 21 New Holding 21 $ 0 $ 0
Finemark National Bank Trust 2016-09-30 1,447 Added More 17 $ 0 $ 60
Legal General Group Plc 2016-09-30 66,263 Added More 15 $ 0 $ 2,790
Fifth Third Bancorp 2016-09-30 443 Added More 15 $ 0 $ 18
Valley National Advisers Inc 2016-09-30 9 New Holding 9 $ 0 $ 0
Advantus Capital Management Inc 2016-09-30 13,270 No Change 0 $ 0 $ 558
Us Bancorp De 2016-09-30 6,690 No Change 0 $ 0 $ 281
Capital One National Association 2016-09-30 35,559 No Change 0 $ 0 $ 1,497
Midas Management Corp 2016-09-30 65,000 No Change 0 $ 0 $ 2,737
Deere Co 2016-09-30 39,095 No Change 0 $ 0 $ 1,646
Sei Investments Co 2016-09-30 385 No Change 0 $ 0 $ 16
Teachers Retirement System Of The State Of Kentucky 2016-09-30 29,900 No Change 0 $ 0 $ 1,259
Becker Capital Management Inc 2016-09-30 7,245 No Change 0 $ 0 $ 305
James Investment Research Inc 2016-09-30 7,887 No Change 0 $ 0 $ 332
Delta Asset Management Llc Tn 2016-09-30 6,928 No Change 0 $ 0 $ 291
First Midwest Bank Trust Division 2016-09-30 9,596 No Change 0 $ 0 $ 404
Wesbanco Bank Inc 2016-09-30 20,000 No Change 0 $ 0 $ 842
Royce Associates Lp 2016-09-30 84,900 No Change 0 $ 0 $ 3,575
Shelton Capital Management 2016-09-30 10,276 No Change 0 $ 0 $ 432
Cibc Asset Management Inc 2016-09-30 278,404 No Change 0 $ 0 $ 11,723
Dreman Value Management L L C 2016-09-30 530 No Change 0 $ 0 $ 22
Prospector Partners Llc 2016-09-30 8,300 No Change 0 $ 0 $ 349
Fuller Thaler Asset Management Inc 2016-09-30 900 No Change 0 $ 0 $ 37
Nationwide Fund Advisors 2016-09-30 219,503 No Change 0 $ 0 $ 9,243
First Interstate Bank 2016-09-30 110 No Change 0 $ 0 $ 4
Trust Co Of Vermont 2016-09-30 150 No Change 0 $ 0 $ 6
Prescott Group Capital Management L L C 2016-09-30 56,684 No Change 0 $ 0 $ 2,386
Century Capital Management Llc 2016-09-30 35,997 No Change 0 $ 0 $ 1,515
Weaver C Barksdale Associates Inc 2016-09-30 627 No Change 0 $ 0 $ 26
Knightsbridge Asset Management Llc 2016-09-30 7,965 No Change 0 $ 0 $ 335
Employees Retirement System Of Texas 2016-09-30 105,000 No Change 0 $ 0 $ 4,421
Sandy Spring Bank 2016-09-30 1,167 No Change 0 $ 0 $ 49
Americafirst Capital Management Llc 2016-09-30 2,340 No Change 0 $ 0 $ 98
Nuveen Asset Management Llc 2016-09-30 45,855 No Change 0 $ 0 $ 1,930
Wfg Advisors Lp 2016-09-30 30 No Change 0 $ 0 $ 1
South Dakota Investment Council 2016-09-30 7,900 No Change 0 $ 0 $ 332
Utah Retirement Systems 2016-09-30 19,400 No Change 0 $ 0 $ 816
Arizona State Retirement System 2016-09-30 42,801 No Change 0 $ 0 $ 1,802
Carroll Financial Associates Inc 2016-09-30 800 No Change 0 $ 0 $ 33
Tarbox Group Inc 2016-09-30 1,913 No Change 0 $ 0 $ 80
Gemmer Asset Management Llc 2016-09-30 172 No Change 0 $ 0 $ 7
Bruderman Asset Management Llc 2016-09-30 1 No Change 0 $ 0 $ 0
Integrated Wealth Management 2016-09-30 250 No Change 0 $ 0 $ 10
Ifp Advisors Inc 2016-09-30 244 No Change 0 $ 0 $ 10
Quadrant Capital Group Llc 2016-09-30 397 No Change 0 $ 0 $ 16
Wealthtrust-Arizona Llc 2016-09-30 599 Sold Some -3 $ -0 $ 25
Martingale Asset Management L P 2016-09-30 9,312 Sold Some -9 $ -0 $ 392
Kcg Holdings Inc 2016-09-30 20,258 Sold Some -11 $ -0 $ 853
Northwestern Mutual Investment Management Company Llc 2016-09-30 18,894 Sold Some -23 $ -0 $ 795
Brc Investment Management Llc 2016-09-30 20,500 Sold Some -24 $ -1 $ 863
Msi Financial Services Inc 2016-09-30 1,118 Sold Some -27 $ -1 $ 47
First Republic Investment Management Inc 2016-09-30 7,722 Sold Some -31 $ -1 $ 325
A R Schmeidler Co Inc 2016-09-30 21,198 Sold Some -40 $ -1 $ 892
First American Trust Fsb 2016-09-30 33,040 Sold Some -50 $ -2 $ 1,391
Penbrook Management Llc 2016-09-30 24,521 Sold Some -50 $ -2 $ 1,032
Comerica Bank 2016-09-30 78,173 Sold Some -85 $ -3 $ 3,291
First Personal Financial Services 2016-09-30 300 Sold Some -130 $ -5 $ 12
Texas Permanent School Fund 2016-09-30 83,582 Sold Some -202 $ -8 $ 3,519
Advisors Asset Management Inc 2016-09-30 10,272 Sold Some -209 $ -8 $ 432
Capstone Asset Management Co 2016-09-30 11,038 Sold Some -240 $ -10 $ 464
Parkside Financial Bank Trust 2016-09-30 2,006 Sold Some -376 $ -15 $ 84
Checchi Capital Advisers Llc 2016-09-30 0 Sold All -411 $ -17 $ 0
Raymond James Associates 2016-09-30 9,697 Sold Some -539 $ -22 $ 408
Alpha Windward Llc 2016-09-30 11,141 Sold Some -540 $ -22 $ 469
Psagot Investment House Ltd 2016-09-30 0 Sold All -550 $ -23 $ 0
Pnc Financial Services Group Inc 2016-09-30 2,391 Sold Some -600 $ -25 $ 100
Mount Lucas Management Lp 2016-09-30 31,555 Sold Some -633 $ -26 $ 1,328
Ibm Retirement Fund 2016-09-30 9,954 Sold Some -812 $ -34 $ 419
Shell Asset Management Co 2016-09-30 20,026 Sold Some -919 $ -38 $ 843
Mizuho Trust Banking Co Ltd 2016-09-30 6,645 Sold Some -980 $ -41 $ 279
Cwh Capital Management Inc 2016-09-30 73,713 Sold Some -1,015 $ -42 $ 3,104
Ngam Advisors L P 2016-09-30 369,335 Sold Some -1,251 $ -52 $ 15,552
Proshare Advisors Llc 2016-09-30 23,235 Sold Some -1,307 $ -55 $ 978
Cadence Capital Management Llc 2016-09-30 13,226 Sold Some -1,410 $ -59 $ 556
Smith Graham Co Investment Advisors Lp 2016-09-30 99,346 Sold Some -1,420 $ -59 $ 4,183
Usa Financial Portformulas Corp 2016-09-30 10,676 Sold Some -1,545 $ -65 $ 449
Hsbc Holdings Plc 2016-09-30 13,006 Sold Some -2,113 $ -88 $ 547
Nomura Asset Management Co Ltd 2016-09-30 0 Sold All -2,150 $ -90 $ 0
Envestnet Asset Management Inc 2016-09-30 57,615 Sold Some -2,152 $ -90 $ 2,426
Point72 Asia Hong Kong Ltd 2016-09-30 1,400 Sold Some -2,400 $ -101 $ 58
Emerald Acquisition Ltd 2016-09-30 64,489 Sold Some -2,420 $ -101 $ 2,715
Pacad Investment Ltd 2016-09-30 15,300 Sold Some -2,500 $ -105 $ 644
Tower Research Capital Llc Trc 2016-09-30 7,023 Sold Some -2,942 $ -123 $ 295
Teacher Retirement System Of Texas 2016-09-30 11,722 Sold Some -3,493 $ -147 $ 493
Brandywine Global Investment Management Llc 2016-09-30 264,641 Sold Some -4,600 $ -193 $ 11,144
Crestpoint Capital Management Llc 2016-09-30 5,500 Sold Some -5,000 $ -210 $ 231
Independent Portfolio Consultants Inc 2016-09-30 0 Sold All -5,350 $ -225 $ 0
Clinton Group Inc 2016-09-30 18,335 Sold Some -5,356 $ -225 $ 772
Financial Engines Advisors L L C 2016-09-30 43,604 Sold Some -5,489 $ -231 $ 1,836
Swiss National Bank 2016-09-30 176,800 Sold Some -6,000 $ -252 $ 7,445
Vident Investment Advisory Llc 2016-09-30 54,752 Sold Some -6,159 $ -259 $ 2,305
Panagora Asset Management Inc 2016-09-30 8,718 Sold Some -6,571 $ -276 $ 367
Profund Advisors Llc 2016-09-30 14,726 Sold Some -7,004 $ -294 $ 620
Oregon Public Employees Retirement Fund 2016-09-30 37,868 Sold Some -7,129 $ -300 $ 1,594
Trexquant Investment Lp 2016-09-30 8,100 Sold Some -7,700 $ -324 $ 341
Marshall Wace Llp 2016-09-30 5,286 Sold Some -8,014 $ -337 $ 222
Parametrica Management Ltd 2016-09-30 0 Sold All -8,133 $ -342 $ 0
Oshaughnessy Asset Management Llc 2016-09-30 2,986 Sold Some -8,431 $ -355 $ 125
William Blair Investment Management Llc 2016-09-30 483,052 Sold Some -9,378 $ -394 $ 20,341
Quantitative Systematic Strategies Llc 2016-09-30 16,389 Sold Some -10,377 $ -436 $ 690
Barings Llc 2016-09-30 0 Sold All -12,000 $ -505 $ 0
Engineers Gate Manager Lp 2016-09-30 8,200 Sold Some -12,125 $ -510 $ 345
First Allied Advisory Services Inc 2016-09-30 0 Sold All -13,442 $ -566 $ 0
Alps Advisors Inc 2016-09-30 0 Sold All -14,423 $ -607 $ 0
Ramsey Quantitative Systems 2016-09-30 0 Sold All -15,184 $ -639 $ 0
Bluecrest Capital Management Ltd 2016-09-30 0 Sold All -17,691 $ -744 $ 0
Strs Ohio 2016-09-30 95,000 Sold Some -20,000 $ -842 $ 4,000
Airain Ltd 2016-09-30 24,808 Sold Some -20,839 $ -877 $ 1,044
Fisher Asset Management Llc 2016-09-30 1,469,419 Sold Some -28,295 $ -1,191 $ 61,877
Chicago Equity Partners Llc 2016-09-30 122,465 Sold Some -37,215 $ -1,567 $ 5,157
Sg Americas Securities Llc 2016-09-30 32,291 Sold Some -39,414 $ -1,659 $ 1,359
Alpenglow Capital Lp 2016-09-30 0 Sold All -56,800 $ -2,391 $ 0
Eaton Vance Management 2016-09-30 523,285 Sold Some -64,206 $ -2,703 $ 22,035
Vaughan Nelson Investment Management L P 2016-09-30 4,056,704 Sold Some -74,350 $ -3,130 $ 170,827
Dalton Greiner Hartman Maher Co 2016-09-30 261,981 Sold Some -81,823 $ -3,445 $ 11,032
Channing Capital Management Llc 2016-09-30 1,825,838 Sold Some -91,294 $ -3,844 $ 76,886
Underhill Investment Management Llc 2016-09-30 371,400 Sold Some -106,400 $ -4,480 $ 15,639
Convergence Investment Partners Llc 2016-09-30 0 Sold All -112,938 $ -4,755 $ 0
Odey Asset Management Group Ltd 2016-09-30 0 Sold All -118,651 $ -4,996 $ 0
Ariel Investments Llc 2016-09-30 5,508,306 Sold Some -158,518 $ -6,675 $ 231,954
Basswood Capital Management L L C 2016-09-30 434,619 Sold Some -190,271 $ -8,012 $ 18,301
Grantham Mayo Van Otterloo Co Llc 2016-09-30 358,981 Sold Some -191,320 $ -8,056 $ 15,116
Laurion Capital Management Lp 2016-09-30 0 Sold All -220,300 $ -9,276 $ 0
Carlson Capital L P 2016-09-30 0 Sold All -221,915 $ -9,344 $ 0
Ensemble Capital Management Llc 2016-09-30 167,425 Sold Some -244,895 $ -10,312 $ 7,050
Sandler Capital Management 2016-09-30 6,275 Sold Some -269,425 $ -11,345 $ 264
Anchor Capital Advisors Llc 2016-09-30 1,144,445 Sold Some -574,921 $ -24,209 $ 48,192
Rs Investment Management Co Llc 2016-06-30 779,424 Sold Some -754,518 $ -30,346 $ 31,348
Dimensional Fund Advisors Lp 2016-09-30 3,739,999 Sold Some -770,815 $ -32,459 $ 157,491